createdAt,value
2022-08-25T00:00:22.582Z,101491.60
2022-08-25T00:03:06.417Z,101487.40
2022-08-25T00:05:36.420Z,101481.60
2022-08-25T00:08:06.848Z,101486.40
2022-08-25T00:10:41.969Z,101481.40
2022-08-25T00:13:10.844Z,101484.60
2022-08-25T00:15:39.732Z,101483.20
2022-08-25T00:18:16.967Z,101481.40
2022-08-25T00:20:49.839Z,101475.80
2022-08-25T00:23:20.434Z,101477.00
2022-08-25T00:25:49.438Z,101472.00
2022-08-25T00:28:18.631Z,101475.60
2022-08-25T00:30:47.899Z,101469.80
2022-08-25T00:33:18.377Z,101472.60
2022-08-25T00:35:47.253Z,101472.00
2022-08-25T00:38:16.966Z,101473.60
2022-08-25T00:40:46.777Z,101472.40
2022-08-25T00:43:15.365Z,101473.80
2022-08-25T00:45:43.970Z,101479.60
2022-08-25T00:48:12.837Z,101474.00
2022-08-25T00:50:41.627Z,101472.60
2022-08-25T00:53:12.669Z,101472.00
2022-08-25T00:55:42.182Z,101468.40
2022-08-25T00:58:19.157Z,101470.80
2022-08-25T01:00:53.178Z,101472.40
2022-08-25T01:03:30.510Z,101477.60
2022-08-25T01:06:05.098Z,101469.80
2022-08-25T01:08:34.906Z,101471.00
2022-08-25T01:11:09.105Z,101473.20
2022-08-25T01:14:08.137Z,101469.60
2022-08-25T01:16:39.414Z,101472.80
2022-08-25T01:19:15.213Z,101466.80
2022-08-25T01:21:50.277Z,101468.60
2022-08-25T01:24:47.781Z,101464.60
2022-08-25T01:27:16.791Z,101462.00
2022-08-25T01:29:46.616Z,101459.20
2022-08-25T01:32:15.508Z,101458.60
2022-08-25T01:34:46.311Z,101458.60
2022-08-25T01:37:19.742Z,101451.80
2022-08-25T01:39:48.952Z,101455.20
2022-08-25T01:43:04.323Z,101454.40
2022-08-25T01:45:37.264Z,101446.00
2022-08-25T01:48:08.702Z,101445.80
2022-08-25T01:50:38.682Z,101448.80
2022-08-25T01:53:30.101Z,101443.80
2022-08-25T01:56:15.686Z,101437.40
2022-08-25T01:58:49.252Z,101434.00
2022-08-25T02:01:22.728Z,101434.40
2022-08-25T02:03:54.896Z,101436.00
2022-08-25T02:06:29.998Z,101431.80
2022-08-25T02:09:05.750Z,101436.00
2022-08-25T02:11:37.250Z,101432.20
2022-08-25T02:14:07.577Z,101435.80
2022-08-25T02:16:39.901Z,101432.60
2022-08-25T02:19:12.177Z,101430.20
2022-08-25T02:21:40.952Z,101424.80
2022-08-25T02:24:10.999Z,101426.20
2022-08-25T02:26:40.744Z,101425.20
2022-08-25T02:29:10.600Z,101429.20
2022-08-25T02:31:39.796Z,101428.40
2022-08-25T02:34:09.975Z,101435.80
2022-08-25T02:36:39.385Z,101434.00
2022-08-25T02:39:10.872Z,101428.60
2022-08-25T02:41:39.955Z,101421.60
2022-08-25T02:44:09.765Z,101422.40
2022-08-25T02:46:39.145Z,101421.60
2022-08-25T02:49:08.285Z,101417.40
2022-08-25T02:51:37.445Z,101414.20
2022-08-25T02:54:07.400Z,101409.80
2022-08-25T02:56:36.087Z,101411.00
2022-08-25T02:59:05.931Z,101411.80
2022-08-25T03:01:35.036Z,101409.20
2022-08-25T03:04:04.296Z,101408.40
2022-08-25T03:06:33.288Z,101407.40
2022-08-25T03:09:02.076Z,101414.20
2022-08-25T03:11:32.072Z,101415.60
2022-08-25T03:14:00.785Z,101418.00
2022-08-25T03:16:29.911Z,101419.80
2022-08-25T03:18:59.896Z,101424.80
2022-08-25T03:21:30.694Z,101424.80
2022-08-25T03:24:00.546Z,101424.80
2022-08-25T03:26:47.971Z,101429.00
2022-08-25T03:29:18.702Z,101430.00
2022-08-25T03:31:48.012Z,101430.60
2022-08-25T03:34:18.705Z,101437.60
2022-08-25T03:36:50.189Z,101432.20
2022-08-25T03:39:21.678Z,101436.40
2022-08-25T03:41:53.200Z,101434.80
2022-08-25T03:44:23.586Z,101435.60
2022-08-25T03:46:53.338Z,101429.40
2022-08-25T03:49:24.585Z,101430.40
2022-08-25T03:51:55.408Z,101428.80
2022-08-25T03:54:26.648Z,101430.40
2022-08-25T03:56:55.971Z,101432.60
2022-08-25T03:59:24.863Z,101430.20
2022-08-25T04:01:55.445Z,101433.20
2022-08-25T04:04:25.034Z,101432.40
2022-08-25T04:06:53.687Z,101430.40
2022-08-25T04:09:22.990Z,101428.20
2022-08-25T04:11:53.292Z,101430.80
2022-08-25T04:14:23.932Z,101428.80
2022-08-25T04:16:53.526Z,101431.80
2022-08-25T04:19:23.167Z,101431.60
2022-08-25T04:21:57.279Z,101434.80
2022-08-25T04:24:26.169Z,101442.40
2022-08-25T04:26:54.957Z,101440.60
2022-08-25T04:29:26.050Z,101442.80
2022-08-25T04:31:56.358Z,101441.60
2022-08-25T04:34:30.793Z,101440.20
2022-08-25T04:37:03.742Z,101448.00
2022-08-25T04:39:33.343Z,101451.40
2022-08-25T04:42:03.028Z,101446.80
2022-08-25T04:44:32.356Z,101437.40
2022-08-25T04:47:01.654Z,101439.00
2022-08-25T04:49:30.342Z,101439.00
2022-08-25T04:51:59.030Z,101446.40
2022-08-25T04:54:28.535Z,101449.80
2022-08-25T04:56:59.782Z,101446.60
2022-08-25T04:59:29.987Z,101450.60
2022-08-25T05:02:03.467Z,101449.00
2022-08-25T05:04:35.732Z,101443.60
2022-08-25T05:07:05.349Z,101444.40
2022-08-25T05:09:34.980Z,101448.20
2022-08-25T05:12:05.504Z,101449.00
2022-08-25T05:14:35.642Z,101445.80
2022-08-25T05:17:04.330Z,101445.60
2022-08-25T05:19:33.426Z,101444.40
2022-08-25T05:22:02.112Z,101443.20
2022-08-25T05:24:31.003Z,101440.80
2022-08-25T05:26:59.794Z,101447.00
2022-08-25T05:29:28.480Z,101446.20
2022-08-25T05:31:57.283Z,101450.40
2022-08-25T05:34:26.017Z,101451.60
2022-08-25T05:36:54.950Z,101446.60
2022-08-25T05:39:24.691Z,101442.00
2022-08-25T05:41:56.057Z,101446.20
2022-08-25T05:44:24.698Z,101444.20
2022-08-25T05:46:53.282Z,101437.00
2022-08-25T05:49:22.509Z,101443.00
2022-08-25T05:51:51.124Z,101438.80
2022-08-25T05:54:20.161Z,101440.00
2022-08-25T05:56:48.848Z,101436.00
2022-08-25T05:59:17.843Z,101428.20
2022-08-25T06:02:05.371Z,101434.00
2022-08-25T06:04:36.592Z,101439.40
2022-08-25T06:07:07.580Z,101435.00
2022-08-25T06:09:40.124Z,101439.00
2022-08-25T06:12:09.232Z,101440.40
2022-08-25T06:14:37.920Z,101441.20
2022-08-25T06:17:06.708Z,101441.40
2022-08-25T06:19:35.395Z,101437.40
2022-08-25T06:22:08.281Z,101438.60
2022-08-25T06:24:37.379Z,101432.40
2022-08-25T06:27:06.374Z,101436.00
2022-08-25T06:29:34.954Z,101438.20
2022-08-25T06:32:04.648Z,101435.00
2022-08-25T06:34:33.967Z,101438.60
2022-08-25T06:37:03.168Z,101439.00
2022-08-25T06:39:32.058Z,101437.00
2022-08-25T06:42:01.255Z,101435.60
2022-08-25T06:44:30.876Z,101429.80
2022-08-25T06:47:00.012Z,101430.60
2022-08-25T06:49:31.823Z,101432.80
2022-08-25T06:52:04.329Z,101432.00
2022-08-25T06:54:33.599Z,101423.60
2022-08-25T06:57:02.956Z,101426.20
2022-08-25T06:59:32.587Z,101426.80
2022-08-25T07:02:05.106Z,101430.60
2022-08-25T07:04:35.822Z,101421.80
2022-08-25T07:07:05.230Z,101426.20
2022-08-25T07:09:37.382Z,101420.80
2022-08-25T07:12:08.598Z,101414.40
2022-08-25T07:14:40.195Z,101416.00
2022-08-25T07:17:23.914Z,101417.40
2022-08-25T07:19:57.636Z,101421.80
2022-08-25T07:22:26.634Z,101427.20
2022-08-25T07:24:55.729Z,101426.00
2022-08-25T07:27:26.159Z,101433.60
2022-08-25T07:29:54.946Z,101434.80
2022-08-25T07:32:24.145Z,101438.60
2022-08-25T07:35:11.066Z,101441.60
2022-08-25T07:37:49.433Z,101442.60
2022-08-25T07:40:29.709Z,101449.00
2022-08-25T07:43:04.277Z,101454.00
2022-08-25T07:45:49.146Z,101454.60
2022-08-25T07:48:20.279Z,101448.40
2022-08-25T07:50:49.773Z,101452.20
2022-08-25T07:53:18.869Z,101450.80
2022-08-25T07:55:47.556Z,101456.00
2022-08-25T07:58:16.242Z,101457.20
2022-08-25T08:00:48.831Z,101454.40
2022-08-25T08:03:42.125Z,101451.20
2022-08-25T08:06:14.409Z,101450.00
2022-08-25T08:08:45.946Z,101442.40
2022-08-25T08:11:31.497Z,101439.40
2022-08-25T08:14:04.688Z,101441.60
2022-08-25T08:16:33.927Z,101443.20
2022-08-25T08:19:03.493Z,101446.00
2022-08-25T08:21:36.217Z,101443.60
2022-08-25T08:24:11.111Z,101435.20
2022-08-25T08:26:58.269Z,101431.80
2022-08-25T08:29:28.243Z,101436.20
2022-08-25T08:31:56.832Z,101443.00
2022-08-25T08:34:25.416Z,101441.40
2022-08-25T08:36:57.499Z,101433.60
2022-08-25T08:39:27.861Z,101440.00
2022-08-25T08:42:37.247Z,101437.00
2022-08-25T08:45:22.832Z,101437.60
2022-08-25T08:48:17.425Z,101433.60
2022-08-25T08:51:08.053Z,101425.60
2022-08-25T08:53:57.408Z,101423.00
2022-08-25T08:56:32.095Z,101427.60
2022-08-25T08:59:19.350Z,101427.80
2022-08-25T09:02:13.953Z,101425.40
2022-08-25T09:04:51.943Z,101435.20
2022-08-25T09:07:31.745Z,101434.40
2022-08-25T09:10:01.708Z,101432.80
2022-08-25T09:13:03.163Z,101431.20
2022-08-25T09:16:34.618Z,101432.60
2022-08-25T09:19:37.205Z,101434.80
2022-08-25T09:22:36.656Z,101434.80
2022-08-25T09:25:52.438Z,101425.60
2022-08-25T09:28:51.478Z,101420.40
2022-08-25T09:31:32.197Z,101416.60
2022-08-25T09:34:11.919Z,101415.00
2022-08-25T09:36:41.422Z,101415.60
2022-08-25T09:39:10.084Z,101411.80
2022-08-25T09:41:52.312Z,101404.80
2022-08-25T09:44:41.684Z,101408.20
2022-08-25T09:47:20.304Z,101408.40
2022-08-25T09:50:00.937Z,101402.00
2022-08-25T09:52:29.864Z,101405.60
2022-08-25T09:55:28.349Z,101403.00
2022-08-25T09:58:00.058Z,101402.40
2022-08-25T10:00:33.943Z,101403.40
2022-08-25T10:03:22.660Z,101406.40
2022-08-25T10:05:59.346Z,101409.00
2022-08-25T10:08:41.242Z,101403.80
2022-08-25T10:11:34.137Z,101398.80
2022-08-25T10:14:15.993Z,101397.00
2022-08-25T10:16:47.362Z,101397.60
2022-08-25T10:19:30.212Z,101392.40
2022-08-25T10:22:32.845Z,101381.80
2022-08-25T10:25:04.760Z,101376.20
2022-08-25T10:28:01.662Z,101377.80
2022-08-25T10:30:52.296Z,101375.80
2022-08-25T10:34:03.440Z,101375.00
2022-08-25T10:36:59.775Z,101375.80
2022-08-25T10:39:37.165Z,101375.60
2022-08-25T10:42:26.947Z,101373.00
2022-08-25T10:45:43.635Z,101372.40
2022-08-25T10:48:33.646Z,101372.20
2022-08-25T10:51:37.977Z,101377.40
2022-08-25T10:54:37.683Z,101366.60
2022-08-25T10:57:20.092Z,101361.80
2022-08-25T11:00:18.167Z,101362.80
2022-08-25T11:03:30.254Z,101355.40
2022-08-25T11:06:14.628Z,101356.60
2022-08-25T11:08:49.150Z,101352.80
2022-08-25T11:11:59.682Z,101349.40
2022-08-25T11:14:43.237Z,101348.20
2022-08-25T11:17:25.257Z,101343.40
2022-08-25T11:20:06.028Z,101345.80
2022-08-25T11:23:20.074Z,101345.40
2022-08-25T11:25:58.284Z,101342.00
2022-08-25T11:29:01.005Z,101339.00
2022-08-25T11:31:30.784Z,101336.20
2022-08-25T11:34:00.086Z,101330.00
2022-08-25T11:36:36.127Z,101330.60
2022-08-25T11:39:25.002Z,101327.40
2022-08-25T11:42:05.681Z,101328.40
2022-08-25T11:44:53.245Z,101328.00
2022-08-25T11:48:00.269Z,101322.00
2022-08-25T11:50:55.907Z,101317.40
2022-08-25T11:53:33.400Z,101315.20
2022-08-25T11:56:09.300Z,101307.20
2022-08-25T11:58:49.707Z,101303.60
2022-08-25T12:01:40.555Z,101293.80
2022-08-25T12:04:34.373Z,101292.40
2022-08-25T12:07:24.999Z,101292.40
2022-08-25T12:09:56.996Z,101284.80
2022-08-25T12:12:39.269Z,101281.00
2022-08-25T12:15:32.023Z,101274.60
2022-08-25T12:18:33.066Z,101271.20
2022-08-25T12:21:02.674Z,101263.40
2022-08-25T12:23:45.840Z,101259.20
2022-08-25T12:27:06.617Z,101254.60
2022-08-25T12:29:58.336Z,101254.60
2022-08-25T12:32:45.251Z,101249.60
2022-08-25T12:35:25.920Z,101241.00
2022-08-25T12:38:42.557Z,101247.20
2022-08-25T12:41:33.692Z,101239.60
2022-08-25T12:44:47.496Z,101234.20
2022-08-25T12:47:27.540Z,101241.60
2022-08-25T12:50:29.584Z,101239.20
2022-08-25T12:53:15.807Z,101230.80
2022-08-25T12:55:54.837Z,101224.00
2022-08-25T12:58:43.720Z,101230.40
2022-08-25T13:01:36.105Z,101220.60
2022-08-25T13:04:31.759Z,101226.80
2022-08-25T13:07:44.992Z,101224.00
2022-08-25T13:10:52.283Z,101220.20
2022-08-25T13:13:52.414Z,101218.00
2022-08-25T13:16:29.655Z,101211.20
2022-08-25T13:19:01.796Z,101203.80
2022-08-25T13:21:40.516Z,101206.60
2022-08-25T13:24:40.457Z,101200.00
2022-08-25T13:27:22.709Z,101198.40
2022-08-25T13:29:58.455Z,101200.40
2022-08-25T13:32:35.648Z,101196.00
2022-08-25T13:35:20.472Z,101195.20
2022-08-25T13:37:50.929Z,101187.80
2022-08-25T13:40:34.062Z,101183.60
2022-08-25T13:43:09.150Z,101185.20
2022-08-25T13:45:47.727Z,101181.40
2022-08-25T13:48:49.315Z,101178.80
2022-08-25T13:51:31.212Z,101177.60
2022-08-25T13:54:07.404Z,101179.20
2022-08-25T13:56:42.230Z,101181.20
2022-08-25T13:59:34.004Z,101176.20
2022-08-25T14:02:02.997Z,101176.40
2022-08-25T14:04:51.279Z,101173.00
2022-08-25T14:07:23.410Z,101171.00
2022-08-25T14:09:59.161Z,101171.40
2022-08-25T14:12:46.628Z,101168.80
2022-08-25T14:15:18.153Z,101161.40
2022-08-25T14:18:01.425Z,101157.80
2022-08-25T14:20:34.153Z,101155.40
2022-08-25T14:23:16.277Z,101146.60
2022-08-25T14:25:50.640Z,101144.00
2022-08-25T14:28:23.559Z,101140.60
2022-08-25T14:31:02.690Z,101141.20
2022-08-25T14:33:40.593Z,101135.60
2022-08-25T14:36:09.441Z,101134.00
2022-08-25T14:38:41.298Z,101135.60
2022-08-25T14:41:13.015Z,101130.60
2022-08-25T14:43:44.249Z,101128.60
2022-08-25T14:46:27.582Z,101130.60
2022-08-25T14:49:06.609Z,101127.20
2022-08-25T14:51:36.423Z,101126.40
2022-08-25T14:54:09.956Z,101127.40
2022-08-25T14:56:43.063Z,101127.80
2022-08-25T14:59:12.213Z,101132.20
2022-08-25T15:01:41.717Z,101134.00
2022-08-25T15:04:17.772Z,101130.40
2022-08-25T15:06:54.862Z,101123.00
2022-08-25T15:09:24.471Z,101123.20
2022-08-25T15:11:57.005Z,101120.00
2022-08-25T15:14:28.596Z,101116.20
2022-08-25T15:17:03.948Z,101114.20
2022-08-25T15:19:32.846Z,101114.20
2022-08-25T15:22:02.033Z,101109.80
2022-08-25T15:24:33.935Z,101112.80
2022-08-25T15:27:10.090Z,101114.80
2022-08-25T15:29:40.690Z,101117.40
2022-08-25T15:32:10.509Z,101114.00
2022-08-25T15:34:59.979Z,101106.00
2022-08-25T15:37:29.994Z,101103.80
2022-08-25T15:40:00.355Z,101102.40
2022-08-25T15:42:29.451Z,101103.20
2022-08-25T15:44:58.412Z,101101.40
2022-08-25T15:47:28.736Z,101099.20
2022-08-25T15:50:11.840Z,101096.40
2022-08-25T15:52:46.414Z,101092.40
2022-08-25T15:55:18.453Z,101090.60
2022-08-25T15:57:49.909Z,101085.60
2022-08-25T16:00:21.558Z,101081.40
2022-08-25T16:02:51.298Z,101079.20
2022-08-25T16:05:26.013Z,101072.80
2022-08-25T16:07:56.733Z,101067.60
2022-08-25T16:10:25.317Z,101059.60
2022-08-25T16:12:54.008Z,101053.20
2022-08-25T16:15:24.057Z,101049.80
2022-08-25T16:18:04.776Z,101054.40
2022-08-25T16:20:36.760Z,101057.00
2022-08-25T16:23:06.071Z,101046.20
2022-08-25T16:25:42.429Z,101044.60
2022-08-25T16:28:18.074Z,101044.80
2022-08-25T16:30:52.764Z,101044.60
2022-08-25T16:33:23.201Z,101040.40
2022-08-25T16:35:52.327Z,101048.40
2022-08-25T16:38:21.220Z,101048.60
2022-08-25T16:40:50.110Z,101048.60
2022-08-25T16:43:19.542Z,101047.60
2022-08-25T16:45:48.201Z,101045.80
2022-08-25T16:48:16.784Z,101044.40
2022-08-25T16:50:47.917Z,101040.00
2022-08-25T16:53:36.073Z,101041.80
2022-08-25T16:56:08.555Z,101044.60
2022-08-25T16:58:39.908Z,101042.60
2022-08-25T17:01:13.597Z,101039.00
2022-08-25T17:03:45.623Z,101041.60
2022-08-25T17:06:15.130Z,101036.40
2022-08-25T17:08:44.487Z,101039.60
2022-08-25T17:11:18.129Z,101041.00
2022-08-25T17:13:52.281Z,101041.60
2022-08-25T17:16:28.214Z,101039.00
2022-08-25T17:19:00.160Z,101041.00
2022-08-25T17:21:35.615Z,101038.00
2022-08-25T17:24:05.883Z,101031.80
2022-08-25T17:26:38.870Z,101036.00
2022-08-25T17:29:07.763Z,101037.00
2022-08-25T17:31:40.289Z,101039.40
2022-08-25T17:34:16.468Z,101039.00
2022-08-25T17:36:46.008Z,101035.00
2022-08-25T17:39:18.591Z,101040.20
2022-08-25T17:41:48.092Z,101039.80
2022-08-25T17:44:17.409Z,101038.80
2022-08-25T17:46:48.163Z,101038.20
2022-08-25T17:49:18.410Z,101039.80
2022-08-25T17:51:47.349Z,101039.20
2022-08-25T17:54:16.566Z,101039.80
2022-08-25T17:56:45.641Z,101040.20
2022-08-25T17:59:16.894Z,101040.80
2022-08-25T18:01:46.971Z,101041.20
2022-08-25T18:04:19.497Z,101042.60
2022-08-25T18:06:48.780Z,101043.40
2022-08-25T18:09:18.703Z,101042.20
2022-08-25T18:11:48.006Z,101043.40
2022-08-25T18:14:21.223Z,101046.20
2022-08-25T18:16:55.513Z,101049.00
2022-08-25T18:19:24.303Z,101055.00
2022-08-25T18:21:52.989Z,101053.40
2022-08-25T18:24:23.603Z,101055.20
2022-08-25T18:26:52.585Z,101055.60
2022-08-25T18:29:21.509Z,101060.80
2022-08-25T18:31:52.030Z,101062.80
2022-08-25T18:34:23.346Z,101060.60
2022-08-25T18:36:52.246Z,101062.80
2022-08-25T18:39:39.607Z,101063.60
2022-08-25T18:42:08.805Z,101062.80
2022-08-25T18:44:37.491Z,101064.20
2022-08-25T18:47:07.801Z,101069.80
2022-08-25T18:49:37.752Z,101070.60
2022-08-25T18:52:07.429Z,101072.00
2022-08-25T18:54:36.397Z,101068.20
2022-08-25T18:57:08.261Z,101073.80
2022-08-25T18:59:37.602Z,101075.40
2022-08-25T19:02:07.975Z,101076.00
2022-08-25T19:04:37.944Z,101079.80
2022-08-25T19:07:09.292Z,101080.00
2022-08-25T19:09:38.282Z,101074.80
2022-08-25T19:12:11.767Z,101074.20
2022-08-25T19:14:51.123Z,101074.60
2022-08-25T19:17:20.321Z,101076.40
2022-08-25T19:19:53.511Z,101074.20
2022-08-25T19:22:40.561Z,101068.20
2022-08-25T19:25:12.507Z,101077.20
2022-08-25T19:27:42.157Z,101076.60
2022-08-25T19:30:14.889Z,101082.40
2022-08-25T19:32:46.869Z,101080.60
2022-08-25T19:35:46.457Z,101080.40
2022-08-25T19:38:33.586Z,101078.20
2022-08-25T19:41:10.535Z,101077.40
2022-08-25T19:43:55.692Z,101076.40
2022-08-25T19:46:35.194Z,101075.60
2022-08-25T19:49:15.530Z,101076.80
2022-08-25T19:51:51.199Z,101075.00
2022-08-25T19:54:28.438Z,101075.40
2022-08-25T19:56:59.512Z,101072.60
2022-08-25T19:59:40.640Z,101072.40
2022-08-25T20:02:25.225Z,101078.00
2022-08-25T20:05:02.439Z,101069.00
2022-08-25T20:07:31.843Z,101068.80
2022-08-25T20:10:01.507Z,101065.80
2022-08-25T20:12:30.554Z,101065.80
2022-08-25T20:14:59.435Z,101061.40
2022-08-25T20:17:28.683Z,101064.20
2022-08-25T20:20:01.411Z,101062.40
2022-08-25T20:22:34.559Z,101066.60
2022-08-25T20:25:14.184Z,101062.00
2022-08-25T20:27:53.999Z,101057.00
2022-08-25T20:30:27.336Z,101053.00
2022-08-25T20:32:58.417Z,101053.80
2022-08-25T20:35:28.559Z,101057.20
2022-08-25T20:37:58.945Z,101061.00
2022-08-25T20:40:30.878Z,101063.20
2022-08-25T20:43:04.589Z,101061.20
2022-08-25T20:45:33.858Z,101059.40
2022-08-25T20:48:02.748Z,101059.40
2022-08-25T20:50:34.095Z,101059.60
2022-08-25T20:53:02.782Z,101061.80
2022-08-25T20:55:32.492Z,101066.20
2022-08-25T20:58:10.402Z,101068.80
2022-08-25T21:00:45.594Z,101065.00
2022-08-25T21:03:14.225Z,101069.20
2022-08-25T21:05:44.033Z,101072.00
2022-08-25T21:08:12.826Z,101076.00
2022-08-25T21:10:41.714Z,101072.20
2022-08-25T21:13:10.401Z,101071.40
2022-08-25T21:15:41.037Z,101069.80
2022-08-25T21:18:10.551Z,101071.40
2022-08-25T21:20:40.557Z,101078.20
2022-08-25T21:23:09.346Z,101075.80
2022-08-25T21:25:42.643Z,101068.60
2022-08-25T21:28:11.534Z,101071.20
2022-08-25T21:30:44.770Z,101069.00
2022-08-25T21:33:16.178Z,101066.40
2022-08-25T21:35:46.866Z,101071.40
2022-08-25T21:38:15.909Z,101063.40
2022-08-25T21:40:44.954Z,101066.60
2022-08-25T21:43:13.894Z,101057.00
2022-08-25T21:45:46.802Z,101059.80
2022-08-25T21:48:16.753Z,101061.00
2022-08-25T21:50:45.586Z,101063.20
2022-08-25T21:53:14.171Z,101060.20
2022-08-25T21:55:44.701Z,101060.00
2022-08-25T21:58:13.425Z,101057.00
2022-08-25T22:00:44.006Z,101055.80
2022-08-25T22:03:12.605Z,101049.80
2022-08-25T22:05:41.189Z,101051.00
2022-08-25T22:08:14.279Z,101052.20
2022-08-25T22:10:45.019Z,101048.00
2022-08-25T22:13:13.909Z,101045.60
2022-08-25T22:15:42.610Z,101042.20
2022-08-25T22:18:11.281Z,101045.20
2022-08-25T22:20:41.353Z,101039.80
2022-08-25T22:23:10.397Z,101038.80
2022-08-25T22:25:49.117Z,101037.60
2022-08-25T22:28:18.626Z,101039.40
2022-08-25T22:30:48.487Z,101040.20
2022-08-25T22:33:17.327Z,101034.40
2022-08-25T22:35:46.627Z,101035.40
2022-08-25T22:38:15.724Z,101026.60
2022-08-25T22:40:45.742Z,101025.20
2022-08-25T22:43:15.350Z,101024.20
2022-08-25T22:45:44.098Z,101027.40
2022-08-25T22:48:13.133Z,101022.20
2022-08-25T22:50:41.820Z,101017.20
2022-08-25T22:53:10.506Z,101009.60
2022-08-25T22:55:44.189Z,101015.00
2022-08-25T22:58:12.971Z,101010.00
2022-08-25T23:00:42.717Z,101007.20
2022-08-25T23:03:11.565Z,101005.00
2022-08-25T23:05:40.904Z,101008.80
2022-08-25T23:08:09.591Z,101008.20
2022-08-25T23:10:38.280Z,101002.00
2022-08-25T23:13:07.490Z,101004.80
2022-08-25T23:15:36.266Z,101004.80
2022-08-25T23:18:05.567Z,101002.40
2022-08-25T23:20:52.790Z,101004.60
2022-08-25T23:23:21.374Z,101000.60
2022-08-25T23:25:51.683Z,100994.60
2022-08-25T23:28:21.942Z,100998.60
2022-08-25T23:30:56.964Z,100997.60
2022-08-25T23:33:28.920Z,100998.00
2022-08-25T23:36:00.678Z,100995.00
2022-08-25T23:38:30.186Z,100991.60
2022-08-25T23:40:59.385Z,100989.60
2022-08-25T23:43:28.381Z,100982.40
2022-08-25T23:45:57.039Z,100980.40
2022-08-25T23:48:27.084Z,100983.00
2022-08-25T23:50:56.180Z,100979.80
2022-08-25T23:53:26.001Z,100978.20
2022-08-25T23:55:56.710Z,100977.00
2022-08-25T23:58:27.008Z,100974.00
